Jack Guidry — WDF2422 — position and weather

sailwx.info

Track history (hours):
 
Tides and Currents Weather Stations Pressure Air Temp Water Temp Dewpoint Dewpoint Depression Visibility Wind Speed Wind Dir Waves Ship Positions

Jack Guidry

Owner: Enterprise Marine Services, LLC, San Antonio, TX. More information available from US FCC via Universal Licensing System and Coast Guard Vessel Documentation Center.

Last reported at 2017-Jun-26 18:15 UTC. Time now 2017-Jun-27 07:09 UTC.
Position N 29°34' W 090°32'.

Length 22 m; draft 3 m.

Type: Other ship. MMSI: 367003430.

Date/timePositionNaut miles runAvg speedWind from/ knotsBaromVisibWave heightAir tempDewpointWater temp
2017-Jun-26 18:15N 29°34' W 090°32'1 3.7
2017-Jun-26 17:58N 29°34' W 090°34'2 3.7
2017-Jun-26 17:30N 29°35' W 090°35'2 3.7
2017-Jun-26 17:00N 29°35' W 090°37'2 3.9
2017-Jun-26 16:30N 29°36' W 090°39'2 3.8
2017-Jun-26 16:01N 29°37' W 090°41'1 2.8
2017-Jun-26 15:30N 29°36' W 090°43'2 3.8
2017-Jun-26 15:01N 29°34' W 090°43'4 4.0
2017-Jun-26 14:00N 29°32' W 090°48'68 2.9
2017-Jun-25 14:46N 29°49' W 092°03'3 4.2
2017-Jun-25 14:00N 29°48' W 092°07'2 4.1
2017-Jun-25 13:30N 29°47' W 092°09'2 3.3
2017-Jun-25 13:00N 29°47' W 092°11'2 3.4
2017-Jun-25 12:29N 29°47' W 092°13'2 3.2
2017-Jun-25 11:58N 29°48' W 092°15'2 3.7
2017-Jun-25 11:30N 29°49' W 092°16'2 4.0
2017-Jun-25 11:00N 29°50' W 092°18'45 3.2
2017-Jun-24 20:46N 29°56' W 093°09'1 3.8
2017-Jun-24 20:30N 29°57' W 093°10'2 3.8
2017-Jun-24 20:01N 29°58' W 093°12'2 3.8
2017-Jun-24 19:31N 29°60' W 093°13'2 3.8
2017-Jun-24 19:00N 30°01' W 093°14'2 3.7
2017-Jun-24 18:30N 30°03' W 093°16'1 2.9
2017-Jun-24 17:58N 30°04' W 093°16'1 2.8
2017-Jun-24 17:30N 30°05' W 093°17'1 1.2
2017-Jun-24 17:00N 30°05' W 093°18'1 1.5
2017-Jun-24 16:30N 30°06' W 093°18'0 0.2
2017-Jun-24 16:00N 30°06' W 093°18'0 0.0
2017-Jun-24 15:30N 30°06' W 093°18'0 0.0
2017-Jun-24 15:00N 30°06' W 093°18'1 0.8
2017-Jun-24 14:00N 30°06' W 093°19'2 3.7
2017-Jun-24 13:31N 30°04' W 093°20'2 3.2
2017-Jun-24 13:01N 30°04' W 093°22'2 4.0
2017-Jun-24 12:30N 30°04' W 093°24'2 4.0
2017-Jun-24 12:01N 30°04' W 093°27'2 3.3
2017-Jun-24 11:28N 30°04' W 093°29'2 3.3
2017-Jun-24 11:00N 30°04' W 093°30'79 3.1
2017-Jun-23 09:27N 29°33' W 094°55'2 4.6
2017-Jun-23 09:00N 29°35' W 094°56'2 4.8
2017-Jun-23 08:29N 29°37' W 094°58'2 5.0
2017-Jun-23 08:00N 29°40' W 094°58'3 4.9
2017-Jun-23 07:24N 29°42' W 095°00'  
2017-Jun-20 02:23N 29°45' W 095°11'2 4.9
2017-Jun-20 01:54N 29°44' W 095°09'4 1.1
2017-Jun-19 22:18N 29°47' W 095°06'1 0.0
2017-Jun-18 18:00N 29°47' W 095°05'1 1.5
2017-Jun-18 17:18N 29°46' W 095°05'2 0.1
2017-Jun-17 05:44N 29°44' W 095°03'1 6.6
2017-Jun-17 05:30N 29°44' W 095°02'3 5.5
2017-Jun-17 05:00N 29°42' W 094°60'3 7.0
2017-Jun-17 04:30N 29°39' W 094°58'3 6.8
2017-Jun-17 04:00N 29°36' W 094°56'3 6.8
2017-Jun-17 03:30N 29°33' W 094°54'  
Track history (hours):
 
Tides and Currents Weather Stations Pressure Air Temp Water Temp Dewpoint Dewpoint Depression Visibility Wind Speed Wind Dir Waves Ship Positions

Jack Guidry

Owner: Enterprise Marine Services, LLC, San Antonio, TX. More information available from US FCC via Universal Licensing System and Coast Guard Vessel Documentation Center.

Last reported at 2017-Jun-26 18:15 UTC. Time now 2017-Jun-27 07:09 UTC.
Position N 29°34' W 090°32'.

Length 22 m; draft 3 m.

Type: Other ship. MMSI: 367003430.

Date/timePositionNaut miles runAvg speedWind from/ knotsBaromVisibWave heightAir tempDewpointWater temp
2017-Jun-26 18:15N 29°34' W 090°32'1 3.7
2017-Jun-26 17:58N 29°34' W 090°34'2 3.7
2017-Jun-26 17:30N 29°35' W 090°35'2 3.7
2017-Jun-26 17:00N 29°35' W 090°37'2 3.9
2017-Jun-26 16:30N 29°36' W 090°39'2 3.8
2017-Jun-26 16:01N 29°37' W 090°41'1 2.8
2017-Jun-26 15:30N 29°36' W 090°43'2 3.8
2017-Jun-26 15:01N 29°34' W 090°43'4 4.0
2017-Jun-26 14:00N 29°32' W 090°48'68 2.9
2017-Jun-25 14:46N 29°49' W 092°03'3 4.2
2017-Jun-25 14:00N 29°48' W 092°07'2 4.1
2017-Jun-25 13:30N 29°47' W 092°09'2 3.3
2017-Jun-25 13:00N 29°47' W 092°11'2 3.4
2017-Jun-25 12:29N 29°47' W 092°13'2 3.2
2017-Jun-25 11:58N 29°48' W 092°15'2 3.7
2017-Jun-25 11:30N 29°49' W 092°16'2 4.0
2017-Jun-25 11:00N 29°50' W 092°18'45 3.2
2017-Jun-24 20:46N 29°56' W 093°09'1 3.8
2017-Jun-24 20:30N 29°57' W 093°10'2 3.8
2017-Jun-24 20:01N 29°58' W 093°12'2 3.8
2017-Jun-24 19:31N 29°60' W 093°13'2 3.8
2017-Jun-24 19:00N 30°01' W 093°14'2 3.7
2017-Jun-24 18:30N 30°03' W 093°16'1 2.9
2017-Jun-24 17:58N 30°04' W 093°16'1 2.8
2017-Jun-24 17:30N 30°05' W 093°17'1 1.2
2017-Jun-24 17:00N 30°05' W 093°18'1 1.5
2017-Jun-24 16:30N 30°06' W 093°18'0 0.2
2017-Jun-24 16:00N 30°06' W 093°18'0 0.0
2017-Jun-24 15:30N 30°06' W 093°18'0 0.0
2017-Jun-24 15:00N 30°06' W 093°18'1 0.8
2017-Jun-24 14:00N 30°06' W 093°19'2 3.7
2017-Jun-24 13:31N 30°04' W 093°20'2 3.2
2017-Jun-24 13:01N 30°04' W 093°22'2 4.0
2017-Jun-24 12:30N 30°04' W 093°24'2 4.0
2017-Jun-24 12:01N 30°04' W 093°27'2 3.3
2017-Jun-24 11:28N 30°04' W 093°29'2 3.3
2017-Jun-24 11:00N 30°04' W 093°30'79 3.1
2017-Jun-23 09:27N 29°33' W 094°55'2 4.6
2017-Jun-23 09:00N 29°35' W 094°56'2 4.8
2017-Jun-23 08:29N 29°37' W 094°58'2 5.0
2017-Jun-23 08:00N 29°40' W 094°58'3 4.9
2017-Jun-23 07:24N 29°42' W 095°00'  
2017-Jun-20 02:23N 29°45' W 095°11'2 4.9
2017-Jun-20 01:54N 29°44' W 095°09'4 1.1
2017-Jun-19 22:18N 29°47' W 095°06'1 0.0
2017-Jun-18 18:00N 29°47' W 095°05'1 1.5
2017-Jun-18 17:18N 29°46' W 095°05'2 0.1
2017-Jun-17 05:44N 29°44' W 095°03'1 6.6
2017-Jun-17 05:30N 29°44' W 095°02'3 5.5
2017-Jun-17 05:00N 29°42' W 094°60'3 7.0
2017-Jun-17 04:30N 29°39' W 094°58'3 6.8
2017-Jun-17 04:00N 29°36' W 094°56'3 6.8
2017-Jun-17 03:30N 29°33' W 094°54'  

Dump ship's entire track history